Time;durP1;ratioP1;P1;durP2;ratioP2;P2;SDS_P1;SDS_P2;PMS_P1;PMS_P2;Temp;Humidity;BMP_temperature;BMP_pressure;BME280_temperature;BME280_humidity;BME280_pressure;Samples;Min_cycle;Max_cycle;Signal;HPM_P1;HPM_P2
2021/12/15 00:02:24;;;;;;;21.02;9.13;;;2.80;99.90;;;;;;5074159;28;20510;-60
2021/12/15 00:04:53;;;;;;;19.20;9.18;;;2.90;99.90;;;;;;5095246;28;20076;-60
2021/12/15 00:07:22;;;;;;;15.32;8.73;;;2.90;99.90;;;;;;5094516;28;20052;-60
2021/12/15 00:09:50;;;;;;;18.60;9.63;;;2.90;99.90;;;;;;5098926;28;20427;-60
2021/12/15 00:12:18;;;;;;;21.75;10.20;;;2.80;99.90;;;;;;5114940;28;20096;-60
2021/12/15 00:14:46;;;;;;;18.58;10.57;;;2.70;99.90;;;;;;5093762;28;20520;-60
2021/12/15 00:17:14;;;;;;;21.00;10.70;;;2.70;99.90;;;;;;5094672;28;20036;-60
2021/12/15 00:19:41;;;;;;;18.45;9.63;;;2.80;99.90;;;;;;5094862;28;20139;-60
2021/12/15 00:22:08;;;;;;;17.65;9.65;;;2.80;99.90;;;;;;5094922;28;20556;-60
2021/12/15 00:24:35;;;;;;;18.80;9.55;;;2.80;99.90;;;;;;5095063;28;20047;-60
2021/12/15 00:27:03;;;;;;;21.90;11.27;;;2.80;99.90;;;;;;5094236;28;20040;-60
2021/12/15 00:29:30;;;;;;;20.30;9.57;;;2.90;99.90;;;;;;5094923;28;20127;-60
2021/12/15 00:31:58;;;;;;;18.10;9.05;;;2.90;99.90;;;;;;5093420;28;20381;-60
2021/12/15 00:34:25;;;;;;;16.75;9.02;;;2.90;99.90;;;;;;5094523;28;20403;-60
2021/12/15 00:36:52;;;;;;;17.27;9.07;;;2.90;99.90;;;;;;5094213;28;20525;-60
2021/12/15 00:39:21;;;;;;;19.27;9.20;;;2.90;99.90;;;;;;5093145;28;20504;-60
2021/12/15 00:41:48;;;;;;;18.67;9.68;;;2.80;99.90;;;;;;5094626;28;20555;-60
2021/12/15 00:44:15;;;;;;;;;;;2.80;99.90;;;;;;5093623;28;20062;-60
2021/12/15 00:46:43;;;;;;;18.92;9.20;;;2.80;99.90;;;;;;5093896;28;19924;-60
2021/12/15 00:49:11;;;;;;;18.35;8.48;;;2.90;99.90;;;;;;5093011;28;20438;-60
2021/12/15 00:51:39;;;;;;;15.93;7.63;;;2.80;99.90;;;;;;5094453;28;20040;-60
2021/12/15 00:54:07;;;;;;;15.40;8.80;;;2.80;99.90;;;;;;5092919;28;20127;-60
2021/12/15 00:56:34;;;;;;;15.95;8.02;;;2.80;99.90;;;;;;5092621;28;20507;-60
2021/12/15 00:59:07;;;;;;;17.30;8.38;;;2.60;99.90;;;;;;5092771;28;20065;-60
2021/12/15 01:01:36;;;;;;;13.48;7.40;;;2.60;99.90;;;;;;5092947;28;20052;-60
2021/12/15 01:04:07;;;;;;;13.85;6.97;;;2.60;99.90;;;;;;5094404;28;20491;-60
2021/12/15 01:06:36;;;;;;;15.07;7.75;;;2.50;99.90;;;;;;5093720;28;20093;-60
2021/12/15 01:09:09;;;;;;;18.73;10.15;;;2.60;99.90;;;;;;5094088;28;20498;-60
2021/12/15 01:11:55;;;;;;;20.05;10.35;;;2.50;99.90;;;;;;5093863;28;20066;-60
2021/12/15 01:19:53;;;;;;;24.23;9.82;;;2.50;99.90;;;;;;5093904;28;20134;-60
2021/12/15 01:22:26;;;;;;;22.60;9.45;;;2.50;99.90;;;;;;5093201;28;20063;-60
2021/12/15 01:25:00;;;;;;;17.98;9.13;;;2.60;99.90;;;;;;5090869;28;20047;-60
2021/12/15 01:27:27;;;;;;;17.08;9.93;;;2.60;99.90;;;;;;5093104;28;20047;-60
2021/12/15 01:29:55;;;;;;;17.98;9.25;;;2.60;99.90;;;;;;5094075;28;20088;-60
2021/12/15 01:32:22;;;;;;;19.63;9.13;;;2.70;99.90;;;;;;5092308;28;20052;-60
2021/12/15 01:34:50;;;;;;;13.93;8.15;;;2.70;99.90;;;;;;5093419;28;20485;-60
2021/12/15 01:37:17;;;;;;;14.85;8.00;;;2.80;99.90;;;;;;5093100;28;20055;-60
2021/12/15 01:39:45;;;;;;;;;;;2.70;99.90;;;;;;5093965;28;20127;-60
2021/12/15 01:42:12;;;;;;;12.87;6.87;;;2.80;99.90;;;;;;5093471;28;19920;-60
2021/12/15 01:47:26;;;;;;;17.10;7.22;;;2.80;99.90;;;;;;5091492;28;20047;-60
2021/12/15 01:49:54;;;;;;;15.95;7.82;;;2.80;99.90;;;;;;5093311;28;20036;-60
2021/12/15 01:52:28;;;;;;;18.38;7.53;;;2.80;99.90;;;;;;5092191;28;20459;-60
2021/12/15 01:55:21;;;;;;;14.85;8.15;;;2.80;99.90;;;;;;5091711;28;20139;-60
2021/12/15 01:57:48;;;;;;;14.80;7.07;;;2.80;99.90;;;;;;5091366;28;20065;-60
2021/12/15 02:00:30;;;;;;;16.33;8.18;;;2.80;99.90;;;;;;5091756;28;20130;-60
2021/12/15 02:02:57;;;;;;;14.75;7.82;;;2.90;99.90;;;;;;5091774;28;20132;-60
2021/12/15 02:05:26;;;;;;;12.43;7.22;;;2.90;99.90;;;;;;5092618;28;20032;-60
2021/12/15 02:07:53;;;;;;;15.55;7.38;;;2.80;99.90;;;;;;5092739;28;20040;-60
2021/12/15 02:10:24;;;;;;;13.73;7.90;;;2.80;99.90;;;;;;5092906;28;20043;-60
2021/12/15 02:12:57;;;;;;;15.40;9.43;;;2.70;99.90;;;;;;5092868;28;20036;-60
2021/12/15 02:15:32;;;;;;;18.42;9.02;;;2.70;99.90;;;;;;5091143;28;20512;-60
2021/12/15 02:18:01;;;;;;;16.40;8.32;;;2.60;99.90;;;;;;5091578;28;20051;-60
2021/12/15 02:20:40;;;;;;;14.93;7.85;;;2.60;99.90;;;;;;5091275;28;20123;-60
2021/12/15 02:23:10;;;;;;;11.77;7.13;;;2.60;99.90;;;;;;5091435;28;20093;-60
2021/12/15 02:25:38;;;;;;;15.40;7.72;;;2.60;99.90;;;;;;5091901;28;20050;-60
2021/12/15 02:28:08;;;;;;;13.02;6.85;;;2.60;99.90;;;;;;5091361;28;20044;-60
2021/12/15 02:38:33;;;;;;;13.15;6.28;;;2.80;99.90;;;;;;5092463;28;20048;-60
2021/12/15 02:41:08;;;;;;;15.30;6.78;;;2.80;99.90;;;;;;5091187;28;20052;-60
2021/12/15 02:43:37;;;;;;;12.82;5.88;;;2.80;99.90;;;;;;5090934;28;20093;-60
2021/12/15 02:46:05;;;;;;;10.90;6.53;;;2.80;99.90;;;;;;5091784;28;20435;-60
2021/12/15 02:48:32;;;;;;;10.80;6.15;;;2.90;99.90;;;;;;5092418;28;20040;-60
2021/12/15 02:51:00;;;;;;;12.30;6.32;;;2.90;99.90;;;;;;5092245;28;20090;-60
2021/12/15 02:53:27;;;;;;;15.32;6.50;;;2.90;99.90;;;;;;5092254;28;20399;-60
2021/12/15 02:55:54;;;;;;;11.93;6.55;;;2.90;99.90;;;;;;5090361;28;20101;-60
2021/12/15 02:58:22;;;;;;;12.35;6.30;;;2.90;99.90;;;;;;5092068;28;20393;-60
2021/12/15 03:01:00;;;;;;;13.52;6.57;;;2.90;99.90;;;;;;5092059;28;20048;-60
2021/12/15 03:06:38;;;;;;;13.10;6.78;;;2.90;99.90;;;;;;5028511;28;20241;-60
2021/12/15 03:18:20;;;;;;;17.45;8.90;;;2.90;99.90;;;;;;5112333;28;20054;-63
2021/12/15 03:21:00;;;;;;;18.40;9.70;;;2.90;99.90;;;;;;5111990;28;20104;-63
2021/12/15 03:23:32;;;;;;;15.70;10.00;;;2.80;99.90;;;;;;5112132;28;20036;-63
2021/12/15 03:26:00;;;;;;;23.67;11.00;;;2.80;99.90;;;;;;5111515;28;20050;-63
2021/12/15 03:34:12;;;;;;;20.45;11.50;;;2.80;99.90;;;;;;5091639;28;20492;-63
2021/12/15 03:37:07;;;;;;;23.02;12.38;;;2.80;99.90;;;;;;5091315;28;20093;-63
2021/12/15 03:39:40;;;;;;;23.60;12.25;;;2.80;99.90;;;;;;5095767;28;20481;-63
2021/12/15 03:42:10;;;;;;;21.95;11.93;;;2.80;99.90;;;;;;5095883;28;20040;-62
2021/12/15 03:44:41;;;;;;;19.98;10.85;;;2.80;99.90;;;;;;5095615;28;20131;-63
2021/12/15 03:47:13;;;;;;;20.92;10.85;;;2.80;99.90;;;;;;5095316;28;20051;-63
2021/12/15 03:49:41;;;;;;;19.95;9.48;;;2.70;99.90;;;;;;5095625;28;20054;-63
2021/12/15 03:52:09;;;;;;;20.80;11.05;;;2.70;99.90;;;;;;5095525;28;20040;-63
2021/12/15 03:54:36;;;;;;;23.63;12.15;;;2.70;99.90;;;;;;5095638;28;20039;-63
2021/12/15 03:57:03;;;;;;;25.50;12.80;;;2.70;99.90;;;;;;5095123;28;20462;-63
2021/12/15 03:59:33;;;;;;;20.08;12.48;;;2.60;99.90;;;;;;5095444;28;20123;-63
2021/12/15 04:02:00;;;;;;;25.90;13.10;;;2.70;99.90;;;;;;5095472;28;20040;-63
2021/12/15 04:04:28;;;;;;;;;;;2.60;99.90;;;;;;5095731;28;20052;-63
2021/12/15 04:06:55;;;;;;;19.17;11.40;;;2.60;99.90;;;;;;5094627;28;19989;-63
2021/12/15 04:09:22;;;;;;;23.77;11.02;;;2.60;99.90;;;;;;5095223;28;20425;-63
2021/12/15 04:11:52;;;;;;;22.90;11.60;;;2.50;99.90;;;;;;5095331;28;20485;-63
2021/12/15 04:14:23;;;;;;;27.13;12.68;;;2.50;99.90;;;;;;5094979;28;20102;-63
2021/12/15 04:17:17;;;;;;;20.63;11.77;;;2.60;99.90;;;;;;5094784;28;20044;-63
2021/12/15 04:19:44;;;;;;;24.63;11.50;;;2.50;99.90;;;;;;5094887;28;20078;-63
2021/12/15 04:22:11;;;;;;;28.92;15.52;;;2.50;99.90;;;;;;5095130;28;20090;-63
2021/12/15 04:24:38;;;;;;;25.85;14.55;;;2.50;99.90;;;;;;5095114;28;20044;-63
2021/12/15 04:27:05;;;;;;;29.60;15.23;;;2.50;99.90;;;;;;5094438;28;20059;-63
2021/12/15 04:29:32;;;;;;;30.38;15.30;;;2.50;99.90;;;;;;5095022;28;20114;-63
2021/12/15 04:32:06;;;;;;;25.17;13.85;;;2.50;99.90;;;;;;5094773;28;20097;-63
2021/12/15 04:34:33;;;;;;;27.33;15.52;;;2.50;99.90;;;;;;5094778;28;20036;-63
2021/12/15 04:37:00;;;;;;;29.50;15.25;;;2.50;99.90;;;;;;5094492;28;20458;-63
2021/12/15 04:39:28;;;;;;;27.55;14.85;;;2.50;99.90;;;;;;5094619;28;20052;-63
2021/12/15 04:41:57;;;;;;;25.35;14.30;;;2.50;99.90;;;;;;5094870;28;20407;-63
2021/12/15 04:44:27;;;;;;;26.00;12.75;;;2.50;99.90;;;;;;5094472;28;20082;-63
2021/12/15 04:47:00;;;;;;;25.98;13.25;;;2.40;99.90;;;;;;5094062;28;20044;-63
2021/12/15 04:49:32;;;;;;;22.73;12.18;;;2.30;99.90;;;;;;5094312;28;20093;-63
2021/12/15 04:52:00;;;;;;;23.95;11.63;;;2.30;99.90;;;;;;5094530;28;20050;-63
2021/12/15 04:54:29;;;;;;;24.40;11.43;;;2.30;99.90;;;;;;5094366;28;20412;-63
2021/12/15 04:56:56;;;;;;;23.13;11.20;;;2.30;99.90;;;;;;5093610;28;20044;-63
2021/12/15 04:59:23;;;;;;;19.83;10.82;;;2.30;99.90;;;;;;5094422;28;20091;-63
2021/12/15 05:01:50;;;;;;;23.08;11.52;;;2.40;99.90;;;;;;5094232;28;20427;-63
2021/12/15 05:04:17;;;;;;;;;;;2.40;99.90;;;;;;5094784;28;20047;-63
2021/12/15 05:06:44;;;;;;;22.55;11.63;;;2.40;99.90;;;;;;5093859;28;20402;-63
2021/12/15 05:09:11;;;;;;;;;;;2.40;99.90;;;;;;5094625;28;20036;-63
2021/12/15 05:11:38;;;;;;;25.83;13.57;;;2.40;99.90;;;;;;5093932;28;19924;-63
2021/12/15 05:14:05;;;;;;;28.40;14.40;;;2.30;99.90;;;;;;5093940;28;20048;-63
2021/12/15 05:16:32;;;;;;;29.10;15.07;;;2.20;99.90;;;;;;5093570;28;20032;-63
2021/12/15 05:19:00;;;;;;;25.38;13.88;;;2.20;99.90;;;;;;5094039;28;20118;-63
2021/12/15 05:21:28;;;;;;;26.02;14.18;;;2.20;99.90;;;;;;5093771;28;20048;-63
2021/12/15 05:24:00;;;;;;;23.27;13.18;;;2.20;99.90;;;;;;5093713;28;20500;-63
2021/12/15 05:26:29;;;;;;;24.30;13.45;;;2.20;99.90;;;;;;5093247;28;20054;-63
2021/12/15 05:28:56;;;;;;;26.73;13.65;;;2.20;99.90;;;;;;5093676;28;20047;-63
2021/12/15 05:31:23;;;;;;;19.13;9.73;;;2.10;99.90;;;;;;5093687;28;20085;-63
2021/12/15 05:33:50;;;;;;;27.25;14.05;;;2.10;99.90;;;;;;5093665;28;20070;-63
2021/12/15 05:36:17;;;;;;;28.95;14.35;;;2.20;99.90;;;;;;5093154;28;20054;-63
2021/12/15 05:38:44;;;;;;;27.98;14.98;;;2.10;99.90;;;;;;5093611;28;20048;-63
2021/12/15 05:41:11;;;;;;;25.50;14.77;;;2.10;99.90;;;;;;5093432;28;20511;-62
2021/12/15 05:43:38;;;;;;;31.08;16.50;;;2.10;99.90;;;;;;5093341;28;20541;-63
2021/12/15 05:46:05;;;;;;;28.90;15.65;;;2.10;99.90;;;;;;5093010;28;20127;-63
2021/12/15 05:48:32;;;;;;;30.45;15.65;;;2.10;99.90;;;;;;5093317;28;20093;-63
2021/12/15 05:50:59;;;;;;;28.50;16.77;;;2.20;99.90;;;;;;5092994;28;20040;-62
2021/12/15 05:53:26;;;;;;;32.97;17.80;;;2.20;99.90;;;;;;5093249;28;20389;-63
2021/12/15 05:55:53;;;;;;;25.02;15.38;;;2.20;99.90;;;;;;5092833;28;20047;-63
2021/12/15 05:58:20;;;;;;;33.17;16.25;;;2.30;99.90;;;;;;5093067;28;20040;-63
2021/12/15 06:00:49;;;;;;;30.98;16.15;;;2.30;99.90;;;;;;5092034;28;20195;-62
2021/12/15 06:03:16;;;;;;;26.40;14.60;;;2.40;99.90;;;;;;5092711;28;20067;-63
2021/12/15 06:05:43;;;;;;;30.48;16.83;;;2.40;99.90;;;;;;5092425;28;20361;-63
2021/12/15 06:08:11;;;;;;;28.17;16.67;;;2.40;99.90;;;;;;5092682;28;20043;-63
2021/12/15 06:10:39;;;;;;;31.15;17.13;;;2.40;99.90;;;;;;5092735;28;20485;-63
2021/12/15 06:13:08;;;;;;;26.90;15.30;;;2.50;99.90;;;;;;5092826;28;20074;-63
2021/12/15 06:15:36;;;;;;;29.05;15.48;;;2.50;99.90;;;;;;5092160;28;20500;-63
2021/12/15 06:18:08;;;;;;;28.40;15.95;;;2.60;99.90;;;;;;5092662;28;20054;-63
2021/12/15 06:20:36;;;;;;;27.13;14.57;;;2.50;99.90;;;;;;5074999;28;20040;-62
2021/12/15 06:23:09;;;;;;;32.33;15.45;;;2.60;99.90;;;;;;5092526;28;20132;-63
2021/12/15 06:25:38;;;;;;;30.15;15.07;;;2.60;99.90;;;;;;5092080;28;20085;-63
2021/12/15 06:28:05;;;;;;;29.40;15.88;;;2.60;99.90;;;;;;5092529;28;20072;-63
2021/12/15 06:30:33;;;;;;;;;;;2.60;99.90;;;;;;5074921;28;20105;-63
2021/12/15 06:33:00;;;;;;;26.75;15.20;;;2.60;99.90;;;;;;5092500;28;19951;-62
2021/12/15 06:35:27;;;;;;;28.92;13.57;;;2.60;99.90;;;;;;5092140;28;20047;-62
2021/12/15 06:37:54;;;;;;;28.83;14.27;;;2.60;99.90;;;;;;5092344;28;20454;-62
2021/12/15 06:40:21;;;;;;;28.50;14.30;;;2.60;99.90;;;;;;5092316;28;20051;-63
2021/12/15 06:42:48;;;;;;;24.95;14.18;;;2.60;99.90;;;;;;5092332;28;20109;-62
2021/12/15 06:45:19;;;;;;;34.40;15.27;;;2.60;99.90;;;;;;5091864;28;20060;-63
2021/12/15 06:59:05;;;;;;;38.47;16.70;;;2.60;99.90;;;;;;5091868;28;20044;-62
2021/12/15 07:01:33;;;;;;;32.67;15.75;;;2.60;99.90;;;;;;5091892;28;20062;-62
2021/12/15 07:04:00;;;;;;;34.08;15.02;;;2.60;99.90;;;;;;5091881;28;20044;-62
2021/12/15 07:06:27;;;;;;;22.55;11.35;;;2.60;99.90;;;;;;5091672;28;20097;-62
2021/12/15 07:08:54;;;;;;;34.15;15.38;;;2.60;99.90;;;;;;5091719;28;20529;-62
2021/12/15 07:11:22;;;;;;;29.67;15.30;;;2.60;99.90;;;;;;5101871;28;20040;-62
2021/12/15 07:13:49;;;;;;;34.03;16.50;;;2.60;99.90;;;;;;5111924;28;20071;-62
2021/12/15 07:16:18;;;;;;;33.90;16.83;;;2.60;99.90;;;;;;5108306;28;20039;-62
2021/12/15 07:19:04;;;;;;;34.25;14.88;;;2.70;99.90;;;;;;5112160;28;20496;-62
2021/12/15 07:21:35;;;;;;;25.33;14.50;;;2.70;99.90;;;;;;5102022;28;20400;-62
2021/12/15 07:24:03;;;;;;;28.67;15.75;;;2.70;99.90;;;;;;5093952;28;20040;-62
2021/12/15 07:26:30;;;;;;;31.08;16.70;;;2.80;99.90;;;;;;5091354;28;20051;-62
2021/12/15 07:28:56;;;;;;;30.80;16.55;;;2.80;99.90;;;;;;5091530;28;20036;-62
2021/12/15 07:31:23;;;;;;;28.48;15.70;;;2.80;99.90;;;;;;5091454;28;20036;-62
2021/12/15 07:33:51;;;;;;;31.83;16.00;;;2.80;99.90;;;;;;5094037;28;20040;-63
2021/12/15 07:36:18;;;;;;;36.75;17.58;;;2.80;99.90;;;;;;5091186;28;20040;-62
2021/12/15 07:38:45;;;;;;;42.35;17.45;;;2.80;99.90;;;;;;5091551;28;20518;-62
2021/12/15 07:41:24;;;;;;;;;;;2.80;99.90;;;;;;5091964;28;20043;-63
2021/12/15 07:43:53;;;;;;;30.35;15.70;;;2.70;99.90;;;;;;5101120;28;19919;-62
2021/12/15 07:46:40;;;;;;;31.92;16.77;;;2.70;99.90;;;;;;5111453;28;20055;-62
2021/12/15 07:49:07;;;;;;;33.60;14.85;;;2.80;99.90;;;;;;5111801;28;20442;-62
2021/12/15 07:51:34;;;;;;;27.90;15.23;;;2.80;99.90;;;;;;5111832;28;20069;-62
2021/12/15 07:54:01;;;;;;;35.25;19.52;;;2.80;99.90;;;;;;5108005;28;20130;-62
2021/12/15 07:56:27;;;;;;;35.25;17.73;;;2.90;99.90;;;;;;5111598;28;20036;-62
2021/12/15 07:58:54;;;;;;;30.17;15.82;;;3.00;99.90;;;;;;5111939;28;20114;-62
2021/12/15 08:01:23;;;;;;;31.25;16.45;;;3.00;99.90;;;;;;5111583;28;20842;-62
2021/12/15 08:03:54;;;;;;;26.13;13.85;;;3.00;99.90;;;;;;5103920;28;20040;-62
2021/12/15 08:06:26;;;;;;;25.05;13.52;;;3.10;99.90;;;;;;5090865;28;20098;-62
2021/12/15 08:08:54;;;;;;;24.30;14.13;;;3.10;99.90;;;;;;5091183;28;20044;-62
2021/12/15 08:11:21;;;;;;;25.27;13.77;;;3.10;99.90;;;;;;5091402;28;20044;-62
2021/12/15 08:13:48;;;;;;;18.20;9.80;;;3.10;99.90;;;;;;5093688;28;20615;-62
2021/12/15 08:16:16;;;;;;;;;;;3.20;99.90;;;;;;5091226;28;20036;-62
2021/12/15 08:18:43;;;;;;;24.58;12.48;;;3.20;99.90;;;;;;5091121;28;20287;-62
2021/12/15 08:21:10;;;;;;;24.70;12.00;;;3.20;99.90;;;;;;5091274;28;20565;-62
2021/12/15 08:23:37;;;;;;;21.45;11.95;;;3.20;99.90;;;;;;5093938;28;20037;-62
2021/12/15 08:26:05;;;;;;;24.92;12.95;;;3.20;99.90;;;;;;5114823;28;20082;-62
2021/12/15 08:28:32;;;;;;;25.75;13.00;;;3.30;99.90;;;;;;5115317;28;20088;-62
2021/12/15 08:31:00;;;;;;;27.20;13.35;;;3.40;99.90;;;;;;5115301;28;20514;-62
2021/12/15 08:33:27;;;;;;;22.67;12.68;;;3.30;99.90;;;;;;5113149;28;20055;-62
2021/12/15 08:35:58;;;;;;;;;;;3.30;99.90;;;;;;5094910;28;20044;-62
2021/12/15 08:38:27;;;;;;;23.10;11.23;;;3.40;99.90;;;;;;5094553;28;19923;-62
2021/12/15 08:40:55;;;;;;;26.92;12.23;;;3.50;99.90;;;;;;5094904;28;20067;-62
2021/12/15 08:43:24;;;;;;;19.80;12.02;;;3.50;99.90;;;;;;5095142;28;20087;-62
2021/12/15 08:46:07;;;;;;;22.73;11.48;;;3.60;99.90;;;;;;5095691;28;20571;-62
2021/12/15 08:48:35;;;;;;;26.80;13.35;;;3.60;99.90;;;;;;5094482;28;20040;-62
2021/12/15 08:51:05;;;;;;;21.02;11.45;;;3.80;99.90;;;;;;5094550;28;20056;-62
2021/12/15 08:53:33;;;;;;;19.88;11.60;;;3.80;99.90;;;;;;5095108;28;20040;-62
2021/12/15 08:55:59;;;;;;;27.27;13.23;;;3.70;99.90;;;;;;5095293;28;20071;-62
2021/12/15 08:58:27;;;;;;;26.05;12.52;;;3.60;99.90;;;;;;5094041;28;20047;-62
2021/12/15 09:00:56;;;;;;;30.15;13.35;;;3.50;99.90;;;;;;5094400;28;20040;-62
2021/12/15 09:03:24;;;;;;;24.27;12.32;;;3.40;99.90;;;;;;5094270;28;20047;-62
2021/12/15 09:05:54;;;;;;;26.05;12.32;;;3.40;99.90;;;;;;5113117;28;20046;-63
2021/12/15 09:08:23;;;;;;;23.30;11.82;;;3.40;99.90;;;;;;5114422;28;20039;-62
2021/12/15 09:10:53;;;;;;;20.50;11.43;;;3.50;99.90;;;;;;5114303;28;20168;-62
2021/12/15 09:13:21;;;;;;;23.38;12.35;;;3.50;99.90;;;;;;5125407;22;20093;-59
2021/12/15 09:15:48;;;;;;;23.08;11.77;;;3.60;99.90;;;;;;5083596;28;20049;-59
2021/12/15 09:18:16;;;;;;;20.90;11.48;;;3.80;99.90;;;;;;5073531;28;20047;-59
2021/12/15 09:20:44;;;;;;;19.88;10.73;;;3.90;99.90;;;;;;5073957;28;20422;-59
2021/12/15 09:23:14;;;;;;;18.90;10.63;;;3.90;99.90;;;;;;5073753;28;20106;-59
2021/12/15 09:25:41;;;;;;;19.45;10.63;;;4.00;99.90;;;;;;5073107;28;20062;-59
2021/12/15 09:28:08;;;;;;;;;;;4.00;99.90;;;;;;5073948;28;20048;-59
2021/12/15 09:30:43;;;;;;;18.00;9.93;;;3.90;99.90;;;;;;5073380;28;19952;-59
2021/12/15 09:33:12;;;;;;;17.20;9.10;;;4.00;99.90;;;;;;5073352;28;20083;-59
2021/12/15 09:35:39;;;;;;;21.50;11.25;;;3.90;99.90;;;;;;5071960;28;20562;-59
2021/12/15 09:38:06;;;;;;;25.15;11.15;;;4.00;99.90;;;;;;5073262;28;20055;-59
2021/12/15 09:40:33;;;;;;;17.67;9.52;;;4.00;99.90;;;;;;5073394;28;20132;-59
2021/12/15 09:43:03;;;;;;;18.83;9.45;;;4.00;99.90;;;;;;5073220;28;20624;-59
2021/12/15 09:45:41;;;;;;;16.65;9.02;;;3.90;99.90;;;;;;5072633;28;20665;-59
2021/12/15 10:17:21;;;;;;;19.67;10.35;;;3.70;99.90;;;;;;5092976;28;20157;-59
2021/12/15 10:20:29;;;;;;;26.17;12.63;;;3.80;99.90;;;;;;5092720;28;20089;-59
2021/12/15 10:22:58;;;;;;;24.95;11.30;;;3.90;99.90;;;;;;5092395;28;20078;-60
2021/12/15 10:25:28;;;;;;;21.50;11.32;;;4.00;99.90;;;;;;5092470;28;20389;-59
2021/12/15 10:28:04;;;;;;;18.60;10.30;;;4.10;99.90;;;;;;5092530;28;20075;-59
2021/12/15 10:30:34;;;;;;;22.05;11.40;;;4.30;99.90;;;;;;5092496;28;20040;-59
2021/12/15 10:33:26;;;;;;;23.45;11.90;;;4.40;99.90;;;;;;5092500;28;20071;-59
2021/12/15 10:35:53;;;;;;;21.83;12.10;;;4.50;99.90;;;;;;5076957;28;20374;-59
2021/12/15 10:38:41;;;;;;;22.00;11.23;;;4.50;99.90;;;;;;5082358;28;20491;-59
2021/12/15 10:41:10;;;;;;;24.85;12.60;;;4.60;99.90;;;;;;5082459;28;20320;-59
2021/12/15 10:43:47;;;;;;;20.42;11.73;;;4.60;99.90;;;;;;5082599;28;20123;-59
2021/12/15 10:46:18;;;;;;;24.63;12.45;;;4.60;99.90;;;;;;5082120;28;20032;-59
2021/12/15 10:48:56;;;;;;;21.50;11.70;;;4.80;99.90;;;;;;5063637;28;20048;-59
2021/12/15 10:51:30;;;;;;;21.63;11.73;;;4.80;99.90;;;;;;5087289;28;20028;-59
2021/12/15 10:54:05;;;;;;;20.23;10.38;;;4.90;99.90;;;;;;5092334;28;20068;-59
2021/12/15 10:56:36;;;;;;;20.30;11.43;;;4.90;99.90;;;;;;5091579;28;20476;-59
2021/12/15 10:59:10;;;;;;;18.75;11.43;;;5.00;99.90;;;;;;5092137;28;20057;-59
2021/12/15 11:01:53;;;;;;;20.48;11.32;;;5.10;99.90;;;;;;5091731;28;20450;-59
2021/12/15 11:04:30;;;;;;;28.00;11.45;;;5.10;99.90;;;;;;5092003;28;20475;-59
2021/12/15 11:07:14;;;;;;;19.83;11.73;;;5.00;99.90;;;;;;5091569;28;20044;-59
2021/12/15 11:09:49;;;;;;;20.02;11.25;;;4.90;99.90;;;;;;5091735;28;20440;-59
2021/12/15 11:12:21;;;;;;;24.23;12.32;;;4.80;99.90;;;;;;5078710;28;20078;-59
2021/12/15 11:14:57;;;;;;;23.55;11.63;;;4.90;99.90;;;;;;5076313;28;20448;-59
2021/12/15 11:17:32;;;;;;;19.10;10.93;;;4.90;99.90;;;;;;5085208;28;20058;-59
2021/12/15 11:20:03;;;;;;;17.83;10.45;;;4.90;99.90;;;;;;5091733;28;20052;-59
2021/12/15 11:22:40;;;;;;;22.80;12.05;;;4.80;99.90;;;;;;5091837;28;20043;-59
2021/12/15 11:25:19;;;;;;;22.13;12.32;;;4.80;99.90;;;;;;5091308;28;20072;-60
2021/12/15 11:27:53;;;;;;;24.45;12.40;;;4.90;99.90;;;;;;5091822;28;20561;-59
2021/12/15 11:30:45;;;;;;;25.40;13.20;;;5.00;99.90;;;;;;5091569;28;20523;-59
2021/12/15 11:33:29;;;;;;;18.83;11.02;;;5.00;99.90;;;;;;5091578;28;20091;-59
2021/12/15 11:36:11;;;;;;;23.08;12.23;;;5.20;99.90;;;;;;5091306;28;20078;-59
2021/12/15 11:38:42;;;;;;;24.75;13.05;;;5.30;99.90;;;;;;5091560;28;20040;-59
2021/12/15 11:41:24;;;;;;;22.00;11.90;;;5.30;99.90;;;;;;5073388;28;20131;-59
2021/12/15 11:43:57;;;;;;;17.85;10.85;;;5.30;99.90;;;;;;5073312;28;20145;-59
2021/12/15 11:46:40;;;;;;;19.55;11.98;;;5.30;99.90;;;;;;5090370;28;20123;-59
2021/12/15 11:49:20;;;;;;;21.30;11.32;;;5.30;99.90;;;;;;5091423;28;20044;-59
2021/12/15 11:51:50;;;;;;;23.67;12.23;;;5.50;99.90;;;;;;5091443;28;20068;-59
2021/12/15 11:54:25;;;;;;;19.73;11.55;;;5.40;99.90;;;;;;5091067;28;20553;-59
2021/12/15 11:56:58;;;;;;;23.65;11.65;;;5.40;99.90;;;;;;5091067;28;20099;-59
2021/12/15 11:59:49;;;;;;;25.58;12.13;;;5.30;99.90;;;;;;5094186;28;20044;-59
2021/12/15 12:02:28;;;;;;;20.65;11.40;;;5.30;99.90;;;;;;5095576;28;20487;-59
2021/12/15 12:04:58;;;;;;;16.17;8.65;;;5.30;99.90;;;;;;5095382;28;20484;-59
2021/12/15 12:07:32;;;;;;;19.30;9.48;;;5.30;99.90;;;;;;5094614;28;20083;-60
2021/12/15 12:10:16;;;;;;;18.20;9.15;;;5.20;99.90;;;;;;5095071;28;20500;-59
2021/12/15 12:12:53;;;;;;;20.38;9.63;;;5.20;99.90;;;;;;5095549;28;20046;-59
2021/12/15 12:15:27;;;;;;;17.40;8.43;;;5.20;99.90;;;;;;5094713;28;20048;-59
2021/12/15 12:18:00;;;;;;;20.00;8.60;;;5.20;99.90;;;;;;5095255;28;20071;-59
2021/12/15 12:20:32;;;;;;;15.32;7.18;;;5.20;99.90;;;;;;5095224;28;20078;-59
2021/12/15 12:23:02;;;;;;;15.43;8.45;;;5.10;99.90;;;;;;5095055;28;20113;-59
2021/12/15 12:25:35;;;;;;;17.00;8.55;;;5.00;99.90;;;;;;5094596;28;20312;-59
2021/12/15 12:28:05;;;;;;;23.73;11.15;;;5.00;99.90;;;;;;5094870;28;20087;-59
2021/12/15 12:30:38;;;;;;;23.50;10.45;;;5.00;99.90;;;;;;5094863;28;20469;-59
2021/12/15 12:33:08;;;;;;;18.92;11.25;;;5.00;99.90;;;;;;5095482;28;20305;-59
2021/12/15 12:35:49;;;;;;;19.08;10.10;;;4.90;99.90;;;;;;5094139;28;20092;-59
2021/12/15 12:38:20;;;;;;;20.70;9.65;;;4.80;99.90;;;;;;5094881;28;20078;-59
2021/12/15 12:40:55;;;;;;;18.02;9.60;;;4.90;99.90;;;;;;5076492;28;20474;-59
2021/12/15 12:43:29;;;;;;;20.70;8.68;;;4.90;99.90;;;;;;5076566;28;20083;-59
2021/12/15 12:46:23;;;;;;;15.68;8.38;;;4.90;99.90;;;;;;5094157;28;20102;-59
2021/12/15 12:49:15;;;;;;;18.45;9.10;;;4.80;99.90;;;;;;5094370;28;20519;-59
2021/12/15 13:00:45;;;;;;;33.75;13.52;;;4.70;99.90;;;;;;5094151;28;20055;-59
2021/12/15 13:03:26;;;;;;;21.45;9.90;;;4.70;99.90;;;;;;5093857;28;20059;-59
2021/12/15 13:06:00;;;;;;;20.33;9.98;;;4.60;99.90;;;;;;5093860;28;20085;-59
2021/12/15 13:08:29;;;;;;;21.10;10.65;;;4.70;99.90;;;;;;5094013;28;20094;-59
2021/12/15 13:11:20;;;;;;;22.48;10.68;;;4.80;99.90;;;;;;5093793;28;20044;-59
2021/12/15 13:13:53;;;;;;;17.13;9.88;;;4.80;99.90;;;;;;5093773;28;20070;-59
2021/12/15 13:16:38;;;;;;;22.88;10.35;;;4.70;99.90;;;;;;5093324;28;20044;-59
2021/12/15 13:19:11;;;;;;;18.98;10.57;;;4.50;99.90;;;;;;5094111;28;20132;-59
2021/12/15 13:21:48;;;;;;;23.23;12.10;;;4.50;99.90;;;;;;5093974;28;20063;-59
2021/12/15 13:30:47;;;;;;;21.95;11.32;;;4.40;99.90;;;;;;5093366;28;20040;-59
2021/12/15 13:33:34;;;;;;;22.00;11.50;;;4.30;99.90;;;;;;5093594;28;20455;-60
2021/12/15 13:36:05;;;;;;;20.10;11.50;;;4.20;99.90;;;;;;5079863;28;20427;-59
2021/12/15 13:38:36;;;;;;;21.17;11.15;;;4.20;99.90;;;;;;5093575;28;20040;-61
2021/12/15 13:41:20;;;;;;;20.23;11.13;;;4.20;99.90;;;;;;5093516;28;20054;-61
2021/12/15 13:44:04;;;;;;;21.67;10.18;;;4.20;99.90;;;;;;5093303;28;20039;-60
2021/12/15 13:46:38;;;;;;;22.73;12.20;;;4.20;99.90;;;;;;5093233;28;20105;-61
2021/12/15 13:49:18;;;;;;;21.08;11.55;;;4.20;99.90;;;;;;5093220;28;20054;-60
2021/12/15 13:52:08;;;;;;;25.52;15.02;;;4.10;99.90;;;;;;5093430;28;20097;-60
2021/12/15 13:54:35;;;;;;;26.23;13.88;;;4.10;99.90;;;;;;5093237;28;20043;-61
2021/12/15 13:57:14;;;;;;;32.03;16.98;;;4.10;99.90;;;;;;5087064;28;20040;-61
2021/12/15 13:59:48;;;;;;;25.17;13.77;;;4.00;99.90;;;;;;5092173;28;20040;-60
2021/12/15 14:02:15;;;;;;;22.85;12.50;;;4.10;99.90;;;;;;5081964;28;20047;-61
2021/12/15 14:04:54;;;;;;;21.88;12.15;;;4.10;99.90;;;;;;5092221;28;20480;-61
2021/12/15 14:07:30;;;;;;;31.05;15.27;;;4.10;99.90;;;;;;5081888;28;20454;-61
2021/12/15 14:10:20;;;;;;;31.40;14.98;;;4.10;99.90;;;;;;5084280;28;20475;-61
2021/12/15 14:12:47;;;;;;;31.98;17.52;;;4.10;99.90;;;;;;5087437;28;20097;-60
2021/12/15 14:15:32;;;;;;;33.00;17.02;;;4.00;99.90;;;;;;5085763;28;20392;-61
2021/12/15 14:18:17;;;;;;;29.75;14.38;;;4.00;99.90;;;;;;5088292;28;20404;-61
2021/12/15 14:20:56;;;;;;;29.08;14.43;;;4.10;99.90;;;;;;5090549;28;20125;-61
2021/12/15 14:23:33;;;;;;;30.42;14.02;;;4.00;99.90;;;;;;5084623;28;20044;-61
2021/12/15 14:26:03;;;;;;;39.10;16.65;;;3.90;99.90;;;;;;5092792;28;20086;-61
2021/12/15 14:28:39;;;;;;;30.55;15.60;;;3.90;99.90;;;;;;5083967;28;20044;-61
2021/12/15 14:31:11;;;;;;;32.30;14.38;;;3.80;99.90;;;;;;5091352;28;20043;-61
2021/12/15 14:33:48;;;;;;;28.92;14.65;;;3.90;99.90;;;;;;5089127;28;20097;-61
2021/12/15 14:36:26;;;;;;;28.10;13.70;;;3.80;99.90;;;;;;5086945;28;20028;-60